createdAt,value
2022-10-10T00:01:36.195Z,2.63
2022-10-10T00:04:06.345Z,2.65
2022-10-10T00:06:35.111Z,2.60
2022-10-10T00:09:04.844Z,2.90
2022-10-10T00:11:35.066Z,2.70
2022-10-10T00:14:03.688Z,2.90
2022-10-10T00:16:32.225Z,2.80
2022-10-10T00:19:00.837Z,2.50
2022-10-10T00:21:29.559Z,2.72
2022-10-10T00:23:58.049Z,2.70
2022-10-10T00:26:26.586Z,2.80
2022-10-10T00:28:56.678Z,2.60
2022-10-10T00:31:25.556Z,2.53
2022-10-10T00:33:54.050Z,2.88
2022-10-10T00:36:22.611Z,2.70
2022-10-10T00:38:51.109Z,3.10
2022-10-10T00:41:19.870Z,3.03
2022-10-10T00:44:06.166Z,2.80
2022-10-10T00:46:35.314Z,2.47
2022-10-10T00:49:05.578Z,2.72
2022-10-10T00:51:34.648Z,2.75
2022-10-10T00:54:06.458Z,2.60
2022-10-10T00:56:40.747Z,2.70
2022-10-10T00:59:12.558Z,3.30
2022-10-10T01:01:41.961Z,2.60
2022-10-10T01:04:29.850Z,3.10
2022-10-10T01:07:00.204Z,2.72
2022-10-10T01:09:29.752Z,2.53
2022-10-10T01:12:05.578Z,3.15
2022-10-10T01:14:40.464Z,3.00
2022-10-10T01:17:17.634Z,2.60
2022-10-10T01:20:14.656Z,2.90
2022-10-10T01:22:58.505Z,2.20
2022-10-10T01:25:30.596Z,2.80
2022-10-10T01:28:03.647Z,2.63
2022-10-10T01:30:35.804Z,2.55
2022-10-10T01:33:09.599Z,2.83
2022-10-10T01:35:48.710Z,2.67
2022-10-10T01:38:30.965Z,2.70
2022-10-10T01:41:07.406Z,3.22
2022-10-10T01:43:37.666Z,2.33
2022-10-10T01:46:12.823Z,2.80
2022-10-10T01:48:42.062Z,2.67
2022-10-10T01:51:23.639Z,2.90
2022-10-10T01:54:06.517Z,2.60
2022-10-10T01:56:43.193Z,2.22
2022-10-10T01:59:24.438Z,2.50
2022-10-10T02:01:57.252Z,2.72
2022-10-10T02:04:33.464Z,2.38
2022-10-10T02:07:06.192Z,2.40
2022-10-10T02:09:38.197Z,2.55
2022-10-10T02:12:08.039Z,2.78
2022-10-10T02:14:41.620Z,2.60
2022-10-10T02:17:13.505Z,3.00
2022-10-10T02:19:47.233Z,2.95
2022-10-10T02:22:16.193Z,2.83
2022-10-10T02:24:44.909Z,2.45
2022-10-10T02:27:18.273Z,3.05
2022-10-10T02:29:48.782Z,2.70
2022-10-10T02:32:25.413Z,2.67
2022-10-10T02:34:59.067Z,2.90
2022-10-10T02:37:28.810Z,2.83
2022-10-10T02:40:00.511Z,2.90
2022-10-10T02:42:30.394Z,2.65
2022-10-10T02:44:59.294Z,2.95
2022-10-10T02:47:29.308Z,2.70
2022-10-10T02:49:57.890Z,2.83
2022-10-10T02:52:26.522Z,2.70
2022-10-10T02:54:55.227Z,3.10
2022-10-10T02:57:23.915Z,3.65
2022-10-10T02:59:52.418Z,2.53
2022-10-10T03:02:21.010Z,2.83
2022-10-10T03:04:50.978Z,3.03
2022-10-10T03:07:19.546Z,2.40
2022-10-10T03:09:48.037Z,3.03
2022-10-10T03:12:16.722Z,3.03
2022-10-10T03:14:46.955Z,2.90
2022-10-10T03:17:15.929Z,2.90
2022-10-10T03:19:44.430Z,2.90
2022-10-10T03:22:14.307Z,2.72
2022-10-10T03:24:42.897Z,3.00
2022-10-10T03:27:11.484Z,3.15
2022-10-10T03:29:40.005Z,3.10
2022-10-10T03:32:11.019Z,2.80
2022-10-10T03:34:39.917Z,3.22
2022-10-10T03:37:08.518Z,3.25
2022-10-10T03:39:38.512Z,3.17
2022-10-10T03:42:07.237Z,3.08
2022-10-10T03:44:35.926Z,3.00
2022-10-10T03:47:04.576Z,3.13
2022-10-10T03:49:33.192Z,2.70
2022-10-10T03:52:01.768Z,2.67
2022-10-10T03:54:30.398Z,3.20
2022-10-10T03:57:00.261Z,3.10
2022-10-10T03:59:28.953Z,2.97
2022-10-10T04:01:57.553Z,2.90
2022-10-10T04:04:26.201Z,3.28
2022-10-10T04:06:54.778Z,3.28
2022-10-10T04:09:24.302Z,3.28
2022-10-10T04:11:52.963Z,3.65
2022-10-10T04:14:23.126Z,3.22
2022-10-10T04:16:51.757Z,3.60
2022-10-10T04:19:20.603Z,3.42
2022-10-10T04:21:49.226Z,3.75
2022-10-10T04:24:18.140Z,3.88
2022-10-10T04:26:46.745Z,3.72
2022-10-10T04:29:15.217Z,3.75
2022-10-10T04:31:45.085Z,3.20
2022-10-10T04:34:14.109Z,4.10
2022-10-10T04:36:43.057Z,3.58
2022-10-10T04:39:11.498Z,3.67
2022-10-10T04:41:40.209Z,3.30
2022-10-10T04:44:08.744Z,4.13
2022-10-10T04:46:37.210Z,3.53
2022-10-10T04:49:07.085Z,4.03
2022-10-10T04:51:35.688Z,3.80
2022-10-10T04:54:04.390Z,3.58
2022-10-10T04:56:32.913Z,3.55
2022-10-10T04:59:01.485Z,3.95
2022-10-10T05:01:30.388Z,4.22
2022-10-10T05:03:59.252Z,3.60
2022-10-10T05:06:29.154Z,3.42
2022-10-10T05:08:57.711Z,3.40
2022-10-10T05:11:26.415Z,3.80
2022-10-10T05:13:54.887Z,3.45
2022-10-10T05:16:23.399Z,3.50
2022-10-10T05:18:52.008Z,3.40
2022-10-10T05:21:20.590Z,3.13
2022-10-10T05:23:50.479Z,3.60
2022-10-10T05:26:19.977Z,3.95
2022-10-10T05:28:48.807Z,4.13
2022-10-10T05:31:17.366Z,4.25
2022-10-10T05:33:45.932Z,4.07
2022-10-10T05:36:15.425Z,3.75
2022-10-10T05:38:44.473Z,3.58
2022-10-10T05:41:14.350Z,3.80
2022-10-10T05:43:42.779Z,3.53
2022-10-10T05:46:11.286Z,3.65
2022-10-10T05:48:39.791Z,3.92
2022-10-10T05:51:08.497Z,3.60
2022-10-10T05:53:37.089Z,3.85
2022-10-10T05:56:05.995Z,3.85
2022-10-10T05:58:35.786Z,3.83
2022-10-10T06:01:06.192Z,3.25
2022-10-10T06:03:36.090Z,3.60
2022-10-10T06:06:05.025Z,4.10
2022-10-10T06:08:33.489Z,4.50
2022-10-10T06:11:04.385Z,3.90
2022-10-10T06:13:33.089Z,3.92
2022-10-10T06:16:03.006Z,4.03
2022-10-10T06:18:31.568Z,3.83
2022-10-10T06:21:03.505Z,3.42
2022-10-10T06:23:32.098Z,4.28
2022-10-10T06:26:00.956Z,4.03
2022-10-10T06:28:29.859Z,3.95
2022-10-10T06:31:02.770Z,4.45
2022-10-10T06:33:31.958Z,4.43
2022-10-10T06:36:00.482Z,4.20
2022-10-10T06:38:29.088Z,4.32
2022-10-10T06:41:01.974Z,4.45
2022-10-10T06:43:30.505Z,4.55
2022-10-10T06:45:59.385Z,4.07
2022-10-10T06:48:31.320Z,4.50
2022-10-10T06:51:01.160Z,4.35
2022-10-10T06:53:29.800Z,3.97
2022-10-10T06:55:58.745Z,3.70
2022-10-10T06:58:28.718Z,3.88
2022-10-10T07:00:58.746Z,3.85
2022-10-10T07:03:30.326Z,3.80
2022-10-10T07:06:03.222Z,4.22
2022-10-10T07:08:32.273Z,4.15
2022-10-10T07:11:00.739Z,4.28
2022-10-10T07:13:29.375Z,4.30
2022-10-10T07:15:58.037Z,4.03
2022-10-10T07:18:26.525Z,4.03
2022-10-10T07:20:58.899Z,4.28
2022-10-10T07:23:28.654Z,4.63
2022-10-10T07:26:01.592Z,4.75
2022-10-10T07:28:30.154Z,5.50
2022-10-10T07:31:03.889Z,4.82
2022-10-10T07:33:33.409Z,5.03
2022-10-10T07:36:03.457Z,4.38
2022-10-10T07:38:32.220Z,4.30
2022-10-10T07:41:00.910Z,4.63
2022-10-10T07:43:29.409Z,4.28
2022-10-10T07:45:58.100Z,3.88
2022-10-10T07:48:26.580Z,4.32
2022-10-10T07:50:55.022Z,3.88
2022-10-10T07:53:25.264Z,4.43
2022-10-10T07:55:53.804Z,4.18
2022-10-10T07:58:22.412Z,4.00
2022-10-10T08:00:50.950Z,4.03
2022-10-10T08:03:19.457Z,4.22
2022-10-10T08:05:48.010Z,4.00
2022-10-10T08:08:16.754Z,4.47
2022-10-10T08:10:46.699Z,4.25
2022-10-10T08:13:15.176Z,4.10
2022-10-10T08:15:43.731Z,3.53
2022-10-10T08:18:12.193Z,3.38
2022-10-10T08:20:40.910Z,3.50
2022-10-10T08:23:09.522Z,3.55
2022-10-10T08:25:38.048Z,3.20
2022-10-10T08:28:07.947Z,3.33
2022-10-10T08:30:40.804Z,3.83
2022-10-10T08:33:09.289Z,3.78
2022-10-10T08:35:39.447Z,3.72
2022-10-10T08:38:08.917Z,3.72
2022-10-10T08:40:44.404Z,3.95
2022-10-10T08:43:21.735Z,3.80
2022-10-10T08:45:52.106Z,3.60
2022-10-10T08:48:25.350Z,3.45
2022-10-10T08:50:58.451Z,3.53
2022-10-10T08:53:32.189Z,3.40
2022-10-10T08:56:01.634Z,3.47
2022-10-10T08:58:37.865Z,3.60
2022-10-10T09:01:12.127Z,3.80
2022-10-10T09:03:46.842Z,3.63
2022-10-10T09:06:31.249Z,3.65
2022-10-10T09:09:07.618Z,3.30
2022-10-10T09:11:48.869Z,3.65
2022-10-10T09:14:30.113Z,4.32
2022-10-10T09:17:03.801Z,3.30
2022-10-10T09:19:45.903Z,3.80
2022-10-10T09:22:18.620Z,3.30
2022-10-10T09:24:52.624Z,3.25
2022-10-10T09:27:25.621Z,3.40
2022-10-10T09:30:02.068Z,3.15
2022-10-10T09:32:37.215Z,3.15
2022-10-10T09:35:15.311Z,3.33
2022-10-10T09:37:47.795Z,3.33
2022-10-10T09:40:23.050Z,3.47
2022-10-10T09:42:51.640Z,3.55
2022-10-10T09:45:28.068Z,2.85
2022-10-10T09:47:57.449Z,3.20
2022-10-10T09:50:26.545Z,3.47
2022-10-10T09:52:55.175Z,2.70
2022-10-10T09:55:28.088Z,2.92
2022-10-10T09:58:02.163Z,3.15
2022-10-10T10:00:37.867Z,3.55
2022-10-10T10:03:16.432Z,3.30
2022-10-10T10:05:47.675Z,3.38
2022-10-10T10:08:37.658Z,2.80
2022-10-10T10:11:07.034Z,3.22
2022-10-10T10:13:37.845Z,3.13
2022-10-10T10:16:10.758Z,3.00
2022-10-10T10:18:41.878Z,3.00
2022-10-10T10:21:17.813Z,2.88
2022-10-10T10:23:55.434Z,2.55
2022-10-10T10:26:27.351Z,2.50
2022-10-10T10:28:57.567Z,2.20
2022-10-10T10:31:53.504Z,3.03
2022-10-10T10:34:44.210Z,2.97
2022-10-10T10:37:20.884Z,2.72
2022-10-10T10:40:10.193Z,2.45
2022-10-10T10:43:01.351Z,2.25
2022-10-10T10:45:39.257Z,2.47
2022-10-10T10:48:21.526Z,2.78
2022-10-10T10:50:55.214Z,2.70
2022-10-10T10:53:30.523Z,2.97
2022-10-10T10:56:09.585Z,2.25
2022-10-10T10:59:23.506Z,2.40
2022-10-10T11:01:56.612Z,2.90
2022-10-10T11:05:19.175Z,2.47
2022-10-10T11:07:53.560Z,2.50
2022-10-10T11:10:30.182Z,2.90
2022-10-10T11:13:07.680Z,2.35
2022-10-10T11:18:33.231Z,2.60
2022-10-10T11:21:09.773Z,2.30
2022-10-10T11:23:43.593Z,2.65
2022-10-10T11:26:19.255Z,2.75
2022-10-10T11:28:54.032Z,4.30
2022-10-10T11:31:27.646Z,3.10
2022-10-10T11:34:00.668Z,2.88
2022-10-10T11:36:35.293Z,2.67
2022-10-10T11:39:15.297Z,2.72
2022-10-10T11:41:48.913Z,3.03
2022-10-10T11:44:22.602Z,2.83
2022-10-10T11:46:57.352Z,3.00
2022-10-10T11:49:37.148Z,2.83
2022-10-10T11:52:33.741Z,2.47
2022-10-10T11:55:07.360Z,2.65
2022-10-10T11:57:42.570Z,2.90
2022-10-10T12:00:14.751Z,2.55
2022-10-10T12:02:44.839Z,3.05
2022-10-10T12:05:23.724Z,2.67
2022-10-10T12:08:08.083Z,3.25
2022-10-10T12:10:42.213Z,3.25
2022-10-10T12:13:28.727Z,3.60
2022-10-10T12:15:59.794Z,2.70
2022-10-10T12:18:33.248Z,2.58
2022-10-10T12:21:07.731Z,3.05
2022-10-10T12:23:38.459Z,2.72
2022-10-10T12:26:06.975Z,2.80
2022-10-10T12:28:57.716Z,3.40
2022-10-10T12:31:36.966Z,2.80
2022-10-10T12:34:14.124Z,2.70
2022-10-10T12:37:11.966Z,2.97
2022-10-10T12:40:02.001Z,3.28
2022-10-10T12:42:33.195Z,2.80
2022-10-10T12:45:02.209Z,2.85
2022-10-10T12:48:03.971Z,3.00
2022-10-10T12:50:35.424Z,3.03
2022-10-10T12:53:07.409Z,3.30
2022-10-10T12:55:45.855Z,2.78
2022-10-10T12:58:27.135Z,3.35
2022-10-10T13:00:58.759Z,2.75
2022-10-10T13:03:31.417Z,2.70
2022-10-10T13:06:06.229Z,2.63
2022-10-10T13:08:37.638Z,3.00
2022-10-10T13:11:11.276Z,3.03
2022-10-10T13:13:41.249Z,2.90
2022-10-10T13:16:14.360Z,2.80
2022-10-10T13:18:49.767Z,2.70
2022-10-10T13:21:21.946Z,2.97
2022-10-10T13:26:46.847Z,2.95
2022-10-10T13:29:24.248Z,2.28
2022-10-10T13:31:54.984Z,2.60
2022-10-10T13:34:27.513Z,2.72
2022-10-10T13:36:58.619Z,2.92
2022-10-10T13:39:28.153Z,2.78
2022-10-10T13:41:58.680Z,3.13
2022-10-10T13:44:33.617Z,2.80
2022-10-10T13:47:35.297Z,3.20
2022-10-10T13:50:04.794Z,2.70
2022-10-10T13:52:33.402Z,2.35
2022-10-10T13:55:16.300Z,2.75
2022-10-10T13:57:47.745Z,3.45
2022-10-10T14:00:19.223Z,2.60
2022-10-10T14:02:49.181Z,2.83
2022-10-10T14:05:26.346Z,2.78
2022-10-10T14:07:56.073Z,2.88
2022-10-10T14:10:26.782Z,2.20
2022-10-10T14:12:58.444Z,2.17
2022-10-10T14:15:44.272Z,2.60
2022-10-10T14:18:17.752Z,2.30
2022-10-10T14:20:46.310Z,3.00
2022-10-10T14:23:15.387Z,2.70
2022-10-10T14:25:46.594Z,2.63
2022-10-10T14:28:20.498Z,2.65
2022-10-10T14:30:49.271Z,2.30
2022-10-10T14:33:19.557Z,2.58
2022-10-10T14:35:50.064Z,2.40
2022-10-10T14:38:18.674Z,2.47
2022-10-10T14:40:49.517Z,2.90
2022-10-10T14:43:20.493Z,2.85
2022-10-10T14:45:51.332Z,2.60
2022-10-10T14:48:20.053Z,2.22
2022-10-10T14:50:51.099Z,3.03
2022-10-10T14:53:19.825Z,3.13
2022-10-10T14:55:50.450Z,3.83
2022-10-10T14:58:24.146Z,3.88
2022-10-10T15:00:54.253Z,3.20
2022-10-10T15:03:22.789Z,2.83
2022-10-10T15:05:51.661Z,3.13
2022-10-10T15:08:20.724Z,2.83
2022-10-10T15:10:49.336Z,3.10
2022-10-10T15:13:18.101Z,3.47
2022-10-10T15:15:49.181Z,2.97
2022-10-10T15:18:49.186Z,3.25
2022-10-10T15:21:10.832Z,2.70
2022-10-10T15:23:39.415Z,2.70
2022-10-10T15:26:08.404Z,3.05
2022-10-10T15:28:37.010Z,2.58
2022-10-10T15:31:07.536Z,2.65
2022-10-10T15:33:36.032Z,3.00
2022-10-10T15:36:09.881Z,3.00
2022-10-10T15:38:38.800Z,3.22
2022-10-10T15:41:08.949Z,3.40
2022-10-10T15:43:44.594Z,3.20
2022-10-10T15:46:14.422Z,3.35
2022-10-10T15:48:43.003Z,3.13
2022-10-10T15:51:11.543Z,3.47
2022-10-10T15:53:40.106Z,3.70
2022-10-10T15:56:10.558Z,3.20
2022-10-10T15:58:40.161Z,3.63
2022-10-10T16:01:15.198Z,2.85
2022-10-10T16:03:44.087Z,3.05
2022-10-10T16:06:13.071Z,3.08
2022-10-10T16:08:41.825Z,2.88
2022-10-10T16:11:12.077Z,2.55
2022-10-10T16:13:41.788Z,2.72
2022-10-10T16:16:13.715Z,2.85
2022-10-10T16:18:43.506Z,3.30
2022-10-10T16:21:14.004Z,2.63
2022-10-10T16:23:42.555Z,2.75
2022-10-10T16:26:14.286Z,2.75
2022-10-10T16:28:42.996Z,2.47
2022-10-10T16:31:14.359Z,3.30
2022-10-10T16:33:43.884Z,2.85
2022-10-10T16:36:14.237Z,2.53
2022-10-10T16:38:43.728Z,3.00
2022-10-10T16:41:29.156Z,3.13
2022-10-10T16:44:03.280Z,3.50
2022-10-10T16:46:33.178Z,2.80
2022-10-10T16:49:01.827Z,4.10
2022-10-10T16:51:31.564Z,3.55
2022-10-10T16:54:05.104Z,4.00
2022-10-10T16:56:34.122Z,3.75
2022-10-10T16:59:03.219Z,3.95
2022-10-10T17:01:33.350Z,4.22
2022-10-10T17:04:03.656Z,3.97
2022-10-10T17:06:37.300Z,3.45
2022-10-10T17:09:08.174Z,3.20
2022-10-10T17:11:36.927Z,3.50
2022-10-10T17:14:05.499Z,3.00
2022-10-10T17:19:25.122Z,4.05
2022-10-10T17:21:53.610Z,3.35
2022-10-10T17:24:22.131Z,4.28
2022-10-10T17:26:50.693Z,4.53
2022-10-10T17:29:19.242Z,3.88
2022-10-10T17:31:49.065Z,5.65
2022-10-10T17:34:17.592Z,4.40
2022-10-10T17:36:46.030Z,5.65
2022-10-10T17:39:14.532Z,3.90
2022-10-10T17:41:43.079Z,3.63
2022-10-10T17:44:12.101Z,3.83
2022-10-10T17:46:41.050Z,3.10
2022-10-10T17:49:12.157Z,3.33
2022-10-10T17:51:41.674Z,3.58
2022-10-10T17:54:11.114Z,4.20
2022-10-10T17:56:40.614Z,3.58
2022-10-10T17:59:10.165Z,4.18
2022-10-10T18:01:39.899Z,5.60
2022-10-10T18:04:08.841Z,4.20
2022-10-10T18:06:39.017Z,4.72
2022-10-10T18:09:07.755Z,5.90
2022-10-10T18:11:36.235Z,4.63
2022-10-10T18:14:04.914Z,4.78
2022-10-10T18:16:35.538Z,4.50
2022-10-10T18:19:05.270Z,4.05
2022-10-10T18:21:34.740Z,3.42
2022-10-10T18:24:05.042Z,3.80
2022-10-10T18:26:34.815Z,5.18
2022-10-10T18:29:03.352Z,4.45
2022-10-10T18:31:33.949Z,4.68
2022-10-10T18:34:03.894Z,4.63
2022-10-10T18:36:34.816Z,5.03
2022-10-10T18:39:07.014Z,5.20
2022-10-10T18:41:36.733Z,5.20
2022-10-10T18:44:07.677Z,5.10
2022-10-10T18:46:37.118Z,5.15
2022-10-10T18:49:08.949Z,3.92
2022-10-10T18:51:39.632Z,5.03
2022-10-10T18:54:10.897Z,5.30
2022-10-10T18:56:40.536Z,5.20
2022-10-10T18:59:13.088Z,4.85
2022-10-10T19:01:44.009Z,4.10
2022-10-10T19:04:14.190Z,4.63
2022-10-10T19:06:43.799Z,4.38
2022-10-10T19:09:15.707Z,5.22
2022-10-10T19:11:46.239Z,5.47
2022-10-10T19:14:17.046Z,5.32
2022-10-10T19:16:47.110Z,5.70
2022-10-10T19:19:17.996Z,5.68
2022-10-10T19:21:48.029Z,6.07
2022-10-10T19:24:20.981Z,4.78
2022-10-10T19:26:56.584Z,5.43
2022-10-10T19:29:26.680Z,5.13
2022-10-10T19:31:56.065Z,4.93
2022-10-10T19:34:24.724Z,5.13
2022-10-10T19:36:54.057Z,5.57
2022-10-10T19:39:24.420Z,5.80
2022-10-10T19:41:52.960Z,5.97
2022-10-10T19:44:21.539Z,6.60
2022-10-10T19:46:50.059Z,6.03
2022-10-10T19:49:18.706Z,4.93
2022-10-10T19:51:47.278Z,5.22
2022-10-10T19:54:15.771Z,4.30
2022-10-10T19:56:45.665Z,4.15
2022-10-10T19:59:14.346Z,4.45
2022-10-10T20:01:43.035Z,3.85
2022-10-10T20:04:11.988Z,3.05
2022-10-10T20:06:41.376Z,3.28
2022-10-10T20:09:11.113Z,3.50
2022-10-10T20:11:40.427Z,2.95
2022-10-10T20:14:10.522Z,3.20
2022-10-10T20:16:39.367Z,3.58
2022-10-10T20:19:08.535Z,2.75
2022-10-10T20:21:37.093Z,2.50
2022-10-10T20:24:08.690Z,2.58
2022-10-10T20:26:37.884Z,2.08
2022-10-10T20:29:07.754Z,1.88
2022-10-10T20:31:39.163Z,2.10
2022-10-10T20:34:08.207Z,2.33
2022-10-10T20:36:39.099Z,2.13
2022-10-10T20:39:09.741Z,1.95
2022-10-10T20:41:40.078Z,2.20
2022-10-10T20:44:11.526Z,1.98
2022-10-10T20:46:43.460Z,2.22
2022-10-10T20:49:14.464Z,1.60
2022-10-10T20:51:48.194Z,1.50
2022-10-10T20:54:18.428Z,1.70
2022-10-10T20:56:49.022Z,1.90
2022-10-10T20:59:18.026Z,1.70
2022-10-10T21:01:48.473Z,1.55
2022-10-10T21:04:17.686Z,1.48
2022-10-10T21:06:46.183Z,1.55
2022-10-10T21:09:16.412Z,1.75
2022-10-10T21:11:48.696Z,1.60
2022-10-10T21:14:20.373Z,1.38
2022-10-10T21:16:50.700Z,1.90
2022-10-10T21:19:19.856Z,1.73
2022-10-10T21:21:48.803Z,2.03
2022-10-10T21:24:17.516Z,1.55
2022-10-10T21:26:49.056Z,1.80
2022-10-10T21:29:17.638Z,2.00
2022-10-10T21:31:46.374Z,2.22
2022-10-10T21:34:18.832Z,1.85
2022-10-10T21:36:47.566Z,1.60
2022-10-10T21:39:16.287Z,1.65
2022-10-10T21:41:44.810Z,1.70
2022-10-10T21:44:13.450Z,1.73
2022-10-10T21:46:42.000Z,2.30
2022-10-10T21:49:12.450Z,1.73
2022-10-10T21:51:45.331Z,2.08
2022-10-10T21:54:14.680Z,1.50
2022-10-10T21:56:43.226Z,2.15
2022-10-10T21:59:12.512Z,1.95
2022-10-10T22:01:41.018Z,2.00
2022-10-10T22:04:10.799Z,2.08
2022-10-10T22:06:39.719Z,1.98
2022-10-10T22:09:09.755Z,1.60
2022-10-10T22:11:38.465Z,1.65
2022-10-10T22:14:07.108Z,3.33
2022-10-10T22:16:36.609Z,2.03
2022-10-10T22:19:05.296Z,1.88
2022-10-10T22:21:35.097Z,1.80
2022-10-10T22:24:06.778Z,1.75
2022-10-10T22:26:37.346Z,1.85
2022-10-10T22:29:06.319Z,1.65
2022-10-10T22:31:37.809Z,1.80
2022-10-10T22:34:07.439Z,1.70
2022-10-10T22:36:36.735Z,1.67
2022-10-10T22:39:07.198Z,1.65
2022-10-10T22:41:37.175Z,1.75
2022-10-10T22:44:06.062Z,1.92
2022-10-10T22:46:34.640Z,1.85
2022-10-10T22:49:03.254Z,1.73
2022-10-10T22:51:31.772Z,1.65
2022-10-10T22:54:00.290Z,2.08
2022-10-10T22:56:28.935Z,1.90
2022-10-10T22:58:59.040Z,1.60
2022-10-10T23:01:27.996Z,1.98
2022-10-10T23:03:59.034Z,2.20
2022-10-10T23:06:28.896Z,1.95
2022-10-10T23:08:58.089Z,1.70
2022-10-10T23:11:26.669Z,2.15
2022-10-10T23:13:55.242Z,1.30
2022-10-10T23:16:25.428Z,1.55
2022-10-10T23:18:54.002Z,1.55
2022-10-10T23:21:22.616Z,1.90
2022-10-10T23:23:51.696Z,2.03
2022-10-10T23:26:20.192Z,2.13
2022-10-10T23:28:51.054Z,1.83
2022-10-10T23:31:19.780Z,1.95
2022-10-10T23:33:49.697Z,2.30
2022-10-10T23:36:18.420Z,1.70
2022-10-10T23:38:47.877Z,1.90
2022-10-10T23:41:16.380Z,1.92
2022-10-10T23:43:44.868Z,2.60
2022-10-10T23:46:14.049Z,1.85
2022-10-10T23:48:42.540Z,1.77
2022-10-10T23:51:12.949Z,1.88
2022-10-10T23:53:41.495Z,1.65
2022-10-10T23:56:10.371Z,2.30
2022-10-10T23:58:38.828Z,2.15
